Time;durP1;ratioP1;P1;durP2;ratioP2;P2;SDS_P1;SDS_P2;PMS_P1;PMS_P2;Temp;Humidity;BMP_temperature;BMP_pressure;BME280_temperature;BME280_humidity;BME280_pressure;Samples;Min_cycle;Max_cycle;Signal;HPM_P1;HPM_P2
2023/04/02 00:00:10;;;;;;;2.42;1.20;;;8.60;99.90;;;;;;4980679;28;20113;-78
2023/04/02 00:03:00;;;;;;;1.95;1.17;;;8.60;99.90;;;;;;4986110;28;20026;-78
2023/04/02 00:05:29;;;;;;;1.77;0.90;;;8.60;99.90;;;;;;4985974;28;20407;-78
2023/04/02 00:08:09;;;;;;;2.22;1.10;;;8.50;99.90;;;;;;4978561;28;20023;-77
2023/04/02 00:10:36;;;;;;;2.60;1.05;;;8.50;99.90;;;;;;4985688;28;20034;-79
2023/04/02 00:13:04;;;;;;;2.25;0.90;;;8.50;99.90;;;;;;4982159;28;20023;-78
2023/04/02 00:15:30;;;;;;;4.65;0.90;;;8.40;99.90;;;;;;4986020;28;20042;-79
2023/04/02 00:17:56;;;;;;;1.80;1.05;;;8.50;99.90;;;;;;4986358;28;20046;-79
2023/04/02 00:20:24;;;;;;;1.92;1.00;;;8.50;99.90;;;;;;4985920;28;20522;-79
2023/04/02 00:22:50;;;;;;;1.75;0.88;;;8.60;99.90;;;;;;4977590;28;20113;-79
2023/04/02 00:25:15;;;;;;;1.88;0.70;;;8.60;99.90;;;;;;4985399;28;20109;-78
2023/04/02 00:27:42;;;;;;;2.45;0.95;;;8.60;99.90;;;;;;4984202;28;20053;-78
2023/04/02 00:30:12;;;;;;;1.38;0.80;;;8.60;99.90;;;;;;4973393;28;20437;-79
2023/04/02 00:32:38;;;;;;;3.00;0.95;;;8.50;99.90;;;;;;4974123;28;20042;-79
2023/04/02 00:35:17;;;;;;;2.70;0.70;;;8.60;99.90;;;;;;4971263;28;20038;-78
2023/04/02 00:37:43;;;;;;;2.78;1.20;;;8.60;99.90;;;;;;4986081;28;20030;-79
2023/04/02 00:40:26;;;;;;;1.50;1.02;;;8.60;99.90;;;;;;4984444;28;20042;-78
2023/04/02 00:42:55;;;;;;;3.40;0.95;;;8.70;99.90;;;;;;4981120;28;20062;-79
2023/04/02 00:45:31;;;;;;;1.60;0.80;;;8.70;99.90;;;;;;4985492;28;20034;-79
2023/04/02 00:47:59;;;;;;;2.28;1.00;;;8.70;99.90;;;;;;4967648;28;20019;-78
2023/04/02 00:50:31;;;;;;;2.83;0.80;;;8.70;99.90;;;;;;4966476;28;20554;-78
2023/04/02 00:52:58;;;;;;;0.88;0.75;;;8.60;99.90;;;;;;4977776;28;20113;-78
2023/04/02 00:55:31;;;;;;;1.02;0.75;;;8.60;99.90;;;;;;4984890;28;20085;-78
2023/04/02 00:57:59;;;;;;;0.90;0.70;;;8.60;99.90;;;;;;4985596;28;20395;-78
2023/04/02 01:00:28;;;;;;;1.00;0.90;;;8.60;99.90;;;;;;4981225;28;20077;-79
2023/04/02 01:03:15;;;;;;;2.08;0.95;;;8.50;99.90;;;;;;4985988;28;20027;-79
2023/04/02 01:05:56;;;;;;;1.23;0.80;;;8.50;99.90;;;;;;4966935;28;20054;-79
2023/04/02 01:08:47;;;;;;;1.52;0.80;;;8.50;99.90;;;;;;4986452;28;20027;-79
2023/04/02 01:11:55;;;;;;;0.90;0.63;;;8.60;99.90;;;;;;4962906;28;20148;-78
2023/04/02 01:14:51;;;;;;;1.52;0.80;;;8.60;99.90;;;;;;4985885;28;20086;-79
2023/04/02 01:18:17;;;;;;;1.60;0.90;;;8.60;99.90;;;;;;4988978;28;20049;-79
2023/04/02 01:20:56;;;;;;;1.42;0.60;;;8.60;99.90;;;;;;4951361;28;20049;-79
2023/04/02 01:23:51;;;;;;;1.70;0.65;;;8.50;99.90;;;;;;4983297;28;20085;-78
2023/04/02 01:26:30;;;;;;;2.25;0.77;;;8.50;99.90;;;;;;4986638;28;20516;-78
2023/04/02 01:29:10;;;;;;;1.20;0.60;;;8.60;99.90;;;;;;4985395;28;20030;-77
2023/04/02 01:31:37;;;;;;;3.55;1.20;;;8.60;99.90;;;;;;4974427;28;20612;-79
2023/04/02 01:34:07;;;;;;;1.35;0.70;;;8.50;99.90;;;;;;4986870;28;20125;-78
2023/04/02 01:36:48;;;;;;;2.53;0.70;;;8.50;99.90;;;;;;4987162;28;20100;-79
2023/04/02 01:39:26;;;;;;;2.25;0.75;;;8.50;99.90;;;;;;4975069;28;20027;-79
2023/04/02 01:42:24;;;;;;;0.80;0.70;;;8.60;99.90;;;;;;4971054;28;20126;-78
2023/04/02 01:44:52;;;;;;;1.45;0.70;;;8.50;99.90;;;;;;4985718;28;20035;-79
2023/04/02 01:47:23;;;;;;;0.93;0.55;;;8.50;99.90;;;;;;4988110;28;20438;-79
2023/04/02 01:49:51;;;;;;;1.65;0.73;;;8.60;99.90;;;;;;4989420;28;20024;-78
2023/04/02 01:52:33;;;;;;;1.20;0.88;;;8.60;99.90;;;;;;4986994;28;20086;-79
2023/04/02 01:54:58;;;;;;;3.10;1.02;;;8.50;99.90;;;;;;4976830;28;20042;-79
2023/04/02 01:57:25;;;;;;;1.02;0.90;;;8.50;99.90;;;;;;4988467;28;20045;-79
2023/04/02 01:59:51;;;;;;;3.53;1.02;;;8.50;99.90;;;;;;4988072;28;20101;-78
2023/04/02 02:02:20;;;;;;;2.40;1.08;;;8.50;99.90;;;;;;4988742;28;20474;-78
2023/04/02 02:04:46;;;;;;;2.05;0.90;;;8.40;99.90;;;;;;4971457;28;20070;-79
2023/04/02 02:07:15;;;;;;;1.63;0.70;;;8.40;99.90;;;;;;4980812;28;20034;-78
2023/04/02 02:09:42;;;;;;;1.00;0.80;;;8.40;99.90;;;;;;4969434;28;20038;-78
2023/04/02 02:12:12;;;;;;;3.38;0.70;;;8.40;99.90;;;;;;4982402;28;20833;-78
2023/04/02 02:14:38;;;;;;;1.38;0.73;;;8.40;99.90;;;;;;4988416;28;20042;-78
2023/04/02 02:17:16;;;;;;;1.88;0.80;;;8.40;99.90;;;;;;4987498;28;20027;-78
2023/04/02 02:19:46;;;;;;;2.85;0.90;;;8.40;99.90;;;;;;4969921;28;20049;-79
2023/04/02 02:22:31;;;;;;;2.05;0.73;;;8.40;99.90;;;;;;4969212;28;20400;-78
2023/04/02 02:24:59;;;;;;;0.93;0.70;;;8.40;99.90;;;;;;4972720;28;20027;-79
2023/04/02 02:27:25;;;;;;;0.95;0.75;;;8.40;99.90;;;;;;4960610;28;20034;-78
2023/04/02 02:30:05;;;;;;;1.80;0.90;;;8.40;99.90;;;;;;4969756;28;20395;-79
2023/04/02 02:32:32;;;;;;;3.60;0.80;;;8.40;99.90;;;;;;4963929;28;20051;-78
2023/04/02 02:35:06;;;;;;;1.15;0.70;;;8.30;99.90;;;;;;4968754;28;20050;-79
2023/04/02 02:37:42;;;;;;;1.52;0.80;;;8.20;99.90;;;;;;4977416;28;20471;-79
2023/04/02 02:40:15;;;;;;;1.35;0.82;;;8.20;99.90;;;;;;4983316;28;20114;-78
2023/04/02 02:42:55;;;;;;;1.00;0.90;;;8.30;99.90;;;;;;4986601;28;20030;-78
2023/04/02 02:45:27;;;;;;;2.58;0.80;;;8.30;99.90;;;;;;4982571;28;20122;-78
2023/04/02 02:47:55;;;;;;;1.65;0.90;;;8.30;99.90;;;;;;4974308;28;20038;-79
2023/04/02 02:50:24;;;;;;;1.77;0.90;;;8.40;99.90;;;;;;4972147;28;20027;-79
2023/04/02 02:52:53;;;;;;;1.10;0.90;;;8.30;99.90;;;;;;4980288;28;20069;-79
2023/04/02 02:55:28;;;;;;;2.50;1.30;;;8.40;99.90;;;;;;4982663;28;20068;-80
2023/04/02 02:58:00;;;;;;;2.50;1.60;;;8.30;99.90;;;;;;4979693;28;20030;-79
2023/04/02 03:00:26;;;;;;;1.60;1.27;;;8.30;99.90;;;;;;4988415;28;20124;-79
2023/04/02 03:02:55;;;;;;;2.45;1.80;;;8.30;99.90;;;;;;4981587;28;20030;-79
2023/04/02 03:05:25;;;;;;;5.30;2.10;;;8.30;99.90;;;;;;4983189;28;20030;-78
2023/04/02 03:07:54;;;;;;;4.00;2.15;;;8.30;99.90;;;;;;4968491;28;20038;-79
2023/04/02 03:10:31;;;;;;;4.82;2.25;;;8.30;99.90;;;;;;4969080;28;20067;-79
2023/04/02 03:13:11;;;;;;;3.13;2.00;;;8.20;99.90;;;;;;4971813;28;20610;-79
2023/04/02 03:15:46;;;;;;;4.03;2.60;;;8.20;99.90;;;;;;4982069;28;20049;-78
2023/04/02 03:18:15;;;;;;;4.32;2.22;;;8.20;99.90;;;;;;4986863;28;20026;-79
2023/04/02 03:20:50;;;;;;;3.95;2.17;;;8.10;99.90;;;;;;4978549;28;20431;-79
2023/04/02 03:23:31;;;;;;;4.65;2.33;;;8.10;99.90;;;;;;4985924;28;20062;-79
2023/04/02 03:26:06;;;;;;;4.95;3.00;;;8.10;99.90;;;;;;4976269;28;20058;-78
2023/04/02 03:28:37;;;;;;;4.72;2.90;;;8.20;99.90;;;;;;4968009;28;20510;-79
2023/04/02 03:31:09;;;;;;;3.63;2.60;;;8.20;99.90;;;;;;4972281;28;20081;-78
2023/04/02 03:33:41;;;;;;;3.20;2.35;;;8.20;99.90;;;;;;4979263;28;20057;-78
2023/04/02 03:36:30;;;;;;;4.60;2.55;;;8.10;99.90;;;;;;4983299;28;20030;-80
2023/04/02 03:39:17;;;;;;;3.83;2.63;;;8.10;99.90;;;;;;4984310;28;20034;-78
2023/04/02 03:42:01;;;;;;;6.00;2.60;;;8.10;99.90;;;;;;4984537;28;20045;-78
2023/04/02 03:44:50;;;;;;;6.95;3.10;;;8.10;99.90;;;;;;4969569;28;20229;-79
2023/04/02 03:47:22;;;;;;;5.18;2.78;;;8.10;99.90;;;;;;4986223;28;20044;-78
2023/04/02 03:50:00;;;;;;;6.90;3.22;;;8.10;99.90;;;;;;4982177;28;20138;-78
2023/04/02 03:52:28;;;;;;;7.90;3.10;;;8.10;99.90;;;;;;4979388;28;20538;-78
2023/04/02 03:55:00;;;;;;;6.50;3.33;;;8.10;99.90;;;;;;4966547;28;20137;-78
2023/04/02 03:57:36;;;;;;;7.35;3.38;;;8.10;99.90;;;;;;4968380;28;20046;-79
2023/04/02 04:00:16;;;;;;;9.32;4.20;;;8.20;99.90;;;;;;4987626;28;20058;-78
2023/04/02 04:02:51;;;;;;;4.72;3.45;;;8.10;99.90;;;;;;4986522;28;20249;-78
2023/04/02 04:05:34;;;;;;;7.00;3.40;;;8.10;99.90;;;;;;4987833;28;20434;-78
2023/04/02 04:08:11;;;;;;;12.10;4.03;;;8.10;99.90;;;;;;4984098;28;20022;-78
2023/04/02 04:10:37;;;;;;;7.38;3.58;;;8.10;99.90;;;;;;4965080;28;20065;-78
2023/04/02 04:13:16;;;;;;;8.30;4.40;;;8.10;99.90;;;;;;4985328;28;20038;-79
2023/04/02 04:15:58;;;;;;;8.45;3.45;;;8.00;99.90;;;;;;4985148;28;20144;-78
2023/04/02 04:18:50;;;;;;;8.13;3.88;;;8.00;99.90;;;;;;4986924;28;20044;-78
2023/04/02 04:21:36;;;;;;;9.80;3.88;;;8.00;99.90;;;;;;4967657;28;20030;-78
2023/04/02 04:24:05;;;;;;;7.03;3.90;;;8.00;99.90;;;;;;4974697;28;20030;-78
2023/04/02 04:26:43;;;;;;;6.80;3.30;;;8.00;99.90;;;;;;4985173;28;20035;-78
2023/04/02 04:29:32;;;;;;;8.60;3.80;;;8.00;99.90;;;;;;4967922;28;20033;-78
2023/04/02 04:32:18;;;;;;;9.60;3.78;;;8.00;99.90;;;;;;4983357;28;20038;-78
2023/04/02 04:34:50;;;;;;;10.13;3.45;;;8.00;99.90;;;;;;4967929;28;20078;-79
2023/04/02 04:37:20;;;;;;;9.80;3.90;;;8.00;99.90;;;;;;4987963;28;20026;-78
2023/04/02 04:40:08;;;;;;;7.80;3.90;;;8.00;99.90;;;;;;4985517;28;20030;-78
2023/04/02 04:42:36;;;;;;;11.25;3.47;;;8.00;99.90;;;;;;4975908;28;20446;-79
2023/04/02 04:45:16;;;;;;;5.05;3.40;;;8.00;99.90;;;;;;4983208;28;20044;-78
2023/04/02 04:47:52;;;;;;;9.20;4.43;;;8.00;99.90;;;;;;4990425;28;20030;-79
2023/04/02 04:50:40;;;;;;;8.40;3.50;;;8.00;99.90;;;;;;4973100;28;20081;-78
2023/04/02 04:53:07;;;;;;;6.97;3.65;;;8.00;99.90;;;;;;4979202;28;20494;-79
2023/04/02 04:55:41;;;;;;;9.95;3.70;;;8.00;99.90;;;;;;4983022;28;20035;-78
2023/04/02 04:58:10;;;;;;;10.45;4.20;;;8.00;99.90;;;;;;4984074;28;20061;-79
2023/04/02 05:01:08;;;;;;;9.57;3.42;;;8.00;99.90;;;;;;4990203;28;20046;-79
2023/04/02 05:03:58;;;;;;;6.88;3.80;;;8.00;99.90;;;;;;4962722;28;20058;-78
2023/04/02 05:06:34;;;;;;;11.35;4.00;;;7.90;99.90;;;;;;4970499;28;20057;-78
2023/04/02 05:09:22;;;;;;;10.43;3.92;;;8.00;99.90;;;;;;4977388;28;20031;-79
2023/04/02 05:12:04;;;;;;;10.43;4.20;;;8.00;99.90;;;;;;4976837;28;20471;-78
2023/04/02 05:15:01;;;;;;;9.98;4.97;;;7.90;99.90;;;;;;4990459;28;20030;-78
2023/04/02 05:17:45;;;;;;;8.75;3.53;;;7.90;99.90;;;;;;4971228;28;20550;-79
2023/04/02 05:20:20;;;;;;;11.27;4.38;;;7.90;99.90;;;;;;4970654;28;20390;-79
2023/04/02 05:23:07;;;;;;;12.30;4.30;;;7.90;99.90;;;;;;4974509;28;20023;-78
2023/04/02 05:25:32;;;;;;;14.65;4.32;;;7.90;99.90;;;;;;4988895;28;20030;-79
2023/04/02 05:28:13;;;;;;;9.98;4.88;;;7.90;99.90;;;;;;4973644;28;20029;-79
2023/04/02 05:30:51;;;;;;;13.75;4.45;;;7.80;99.90;;;;;;4980521;28;20034;-79
2023/04/02 05:33:32;;;;;;;17.60;4.85;;;7.90;99.90;;;;;;4988786;28;20026;-78
2023/04/02 05:36:21;;;;;;;17.73;4.80;;;7.90;99.90;;;;;;4989613;28;20092;-78
2023/04/02 05:38:50;;;;;;;9.80;4.10;;;7.90;99.90;;;;;;4969831;28;20018;-79
2023/04/02 05:41:25;;;;;;;10.35;4.20;;;7.90;99.90;;;;;;4971853;28;20061;-78
2023/04/02 05:44:16;;;;;;;16.98;4.60;;;7.90;99.90;;;;;;4989413;28;20033;-78
2023/04/02 05:46:50;;;;;;;15.27;4.88;;;7.90;99.90;;;;;;4986799;28;20042;-79
2023/04/02 05:49:40;;;;;;;12.40;4.32;;;7.90;99.90;;;;;;4981719;28;20034;-78
2023/04/02 05:52:11;;;;;;;13.40;4.40;;;7.90;99.90;;;;;;4985967;28;20483;-78
2023/04/02 05:55:00;;;;;;;14.98;4.07;;;7.80;99.90;;;;;;4982116;28;20125;-78
2023/04/02 05:57:41;;;;;;;13.27;4.13;;;7.80;99.90;;;;;;4959936;28;20094;-80
2023/04/02 06:00:19;;;;;;;14.07;3.90;;;7.90;99.90;;;;;;4970054;28;20050;-78
2023/04/02 06:02:53;;;;;;;10.60;3.78;;;7.80;99.90;;;;;;4967027;28;20035;-78
2023/04/02 06:05:24;;;;;;;14.80;4.22;;;7.70;99.90;;;;;;4979370;28;20031;-79
2023/04/02 06:08:00;;;;;;;38.38;17.80;;;7.70;99.90;;;;;;4982818;28;20038;-78
2023/04/02 06:10:36;;;;;;;19.90;7.22;;;7.80;99.90;;;;;;4966120;28;20081;-78
2023/04/02 06:13:06;;;;;;;12.15;4.85;;;7.80;99.90;;;;;;4982213;28;20113;-79
2023/04/02 06:15:34;;;;;;;11.80;3.95;;;7.80;99.90;;;;;;4970960;28;20038;-78
2023/04/02 06:18:20;;;;;;;18.58;3.95;;;7.80;99.90;;;;;;4988875;28;20026;-78
2023/04/02 06:20:46;;;;;;;9.02;3.53;;;7.80;99.90;;;;;;4980152;28;20490;-78
2023/04/02 06:23:20;;;;;;;12.02;3.47;;;7.80;99.90;;;;;;4981034;28;20209;-78
2023/04/02 06:25:52;;;;;;;39.13;15.57;;;7.70;99.90;;;;;;4983655;28;20573;-78
2023/04/02 06:28:25;;;;;;;5.75;3.10;;;7.70;99.90;;;;;;4982424;28;20125;-78
2023/04/02 06:30:56;;;;;;;11.50;3.05;;;7.70;99.90;;;;;;4980514;28;20034;-79
2023/04/02 06:33:22;;;;;;;8.30;2.85;;;7.60;99.90;;;;;;4982427;28;20125;-78
2023/04/02 06:35:50;;;;;;;6.28;2.90;;;7.60;99.90;;;;;;4984722;28;20125;-78
2023/04/02 06:38:20;;;;;;;38.22;16.10;;;7.70;99.90;;;;;;4983115;28;20034;-78
2023/04/02 06:40:53;;;;;;;9.85;2.90;;;7.70;99.90;;;;;;4987500;28;20034;-79
2023/04/02 06:43:46;;;;;;;8.27;2.75;;;7.60;99.90;;;;;;4984673;28;20034;-78
2023/04/02 06:46:20;;;;;;;7.82;2.60;;;7.50;99.90;;;;;;4978170;28;20038;-78
2023/04/02 06:48:49;;;;;;;13.18;2.75;;;7.60;99.90;;;;;;4975592;28;20109;-79
2023/04/02 06:51:19;;;;;;;9.02;2.22;;;7.60;99.90;;;;;;4980711;28;20031;-78
2023/04/02 06:53:49;;;;;;;6.78;2.13;;;7.70;99.90;;;;;;4985713;28;20042;-78
2023/04/02 06:56:52;;;;;;;7.40;2.00;;;7.60;99.90;;;;;;4985754;28;20026;-77
2023/04/02 06:59:18;;;;;;;3.25;1.90;;;7.70;99.90;;;;;;4987557;28;20046;-77
2023/04/02 07:01:47;;;;;;;9.27;1.83;;;7.60;99.90;;;;;;4970686;28;20068;-77
2023/04/02 07:04:15;;;;;;;4.45;1.60;;;7.60;99.90;;;;;;4967728;28;20051;-81
2023/04/02 07:06:40;;;;;;;5.15;1.63;;;7.60;99.90;;;;;;4976817;28;20431;-79
2023/04/02 07:09:06;;;;;;;9.75;1.95;;;7.60;99.90;;;;;;4969403;28;20117;-76
2023/04/02 07:11:33;;;;;;;5.57;1.75;;;7.60;99.90;;;;;;4983062;28;20624;-77
2023/04/02 07:13:58;;;;;;;6.38;2.00;;;7.70;99.90;;;;;;4980797;28;20117;-79
2023/04/02 07:16:26;;;;;;;6.50;1.80;;;7.60;99.90;;;;;;4966099;28;20455;-79
2023/04/02 07:18:54;;;;;;;7.05;2.33;;;7.70;99.90;;;;;;4964131;28;20026;-79
2023/04/02 07:21:20;;;;;;;6.13;2.00;;;7.70;99.90;;;;;;4982892;28;20529;-79
2023/04/02 07:23:46;;;;;;;7.45;1.55;;;7.70;99.90;;;;;;4975142;28;20109;-79
2023/04/02 07:26:19;;;;;;;7.63;1.98;;;7.80;99.90;;;;;;4975750;28;20078;-78
2023/04/02 07:28:45;;;;;;;4.07;1.92;;;7.80;99.90;;;;;;4978778;28;20045;-79
2023/04/02 07:31:20;;;;;;;6.32;1.83;;;7.70;99.90;;;;;;4974260;28;20818;-79
2023/04/02 07:33:46;;;;;;;8.43;2.10;;;7.70;99.90;;;;;;4973237;28;20038;-79
2023/04/02 07:36:17;;;;;;;11.23;2.03;;;7.60;99.90;;;;;;4971272;28;20113;-77
2023/04/02 07:38:43;;;;;;;6.13;2.03;;;7.60;99.90;;;;;;4981261;28;20027;-77
2023/04/02 07:41:09;;;;;;;271.73;120.30;;;7.70;99.90;;;;;;4982839;28;20030;-78
2023/04/02 07:43:35;;;;;;;7.28;2.90;;;7.80;99.90;;;;;;4967826;28;20589;-76
2023/04/02 07:46:01;;;;;;;7.97;2.00;;;7.80;99.90;;;;;;4959824;28;20179;-78
2023/04/02 07:48:27;;;;;;;5.47;2.22;;;7.80;99.90;;;;;;4973783;28;20037;-77
2023/04/02 07:50:52;;;;;;;12.15;2.30;;;7.80;99.90;;;;;;4973656;28;20039;-78
2023/04/02 07:53:33;;;;;;;7.15;1.75;;;7.70;99.90;;;;;;4972695;28;20527;-78
2023/04/02 07:56:01;;;;;;;7.20;2.05;;;7.80;99.90;;;;;;4978022;28;20042;-78
2023/04/02 07:58:28;;;;;;;4.38;1.60;;;8.00;99.90;;;;;;4962868;28;20448;-78
2023/04/02 08:00:53;;;;;;;6.13;1.85;;;7.90;99.90;;;;;;4962688;28;20734;-78
2023/04/02 08:03:19;;;;;;;9.90;2.28;;;7.90;99.90;;;;;;4967017;28;20094;-78
2023/04/02 08:05:56;;;;;;;3.80;2.10;;;7.80;99.90;;;;;;4983121;28;20082;-78
2023/04/02 08:08:23;;;;;;;10.75;1.92;;;7.70;99.90;;;;;;4985671;28;20490;-78
2023/04/02 08:10:49;;;;;;;9.30;2.10;;;7.80;99.90;;;;;;4977094;28;20053;-79
2023/04/02 08:13:16;;;;;;;5.43;1.67;;;7.80;99.90;;;;;;4987624;28;20065;-77
2023/04/02 08:15:42;;;;;;;9.13;2.05;;;7.80;99.90;;;;;;4989032;28;20058;-77
2023/04/02 08:18:09;;;;;;;11.80;2.30;;;7.80;99.90;;;;;;4981393;28;20030;-78
2023/04/02 08:20:35;;;;;;;5.50;1.70;;;7.80;99.90;;;;;;4984574;28;20097;-78
2023/04/02 08:23:02;;;;;;;4.90;1.80;;;8.00;99.90;;;;;;4971523;28;20491;-77
2023/04/02 08:25:27;;;;;;;9.63;1.88;;;7.90;99.90;;;;;;4980127;28;20032;-78
2023/04/02 08:27:53;;;;;;;4.75;1.52;;;8.00;99.90;;;;;;4977070;28;20137;-78
2023/04/02 08:30:19;;;;;;;6.63;1.98;;;8.00;99.90;;;;;;4964323;28;20030;-77
2023/04/02 08:32:45;;;;;;;6.72;1.70;;;8.00;99.90;;;;;;4979048;28;20050;-79
2023/04/02 08:35:13;;;;;;;8.13;2.20;;;7.90;99.90;;;;;;4975564;28;20047;-78
2023/04/02 08:37:39;;;;;;;5.28;1.70;;;7.90;99.90;;;;;;4977966;28;20046;-78
2023/04/02 08:40:06;;;;;;;5.85;2.17;;;8.00;99.90;;;;;;4977133;28;20118;-78
2023/04/02 08:43:29;;;;;;;6.45;1.70;;;8.10;99.90;;;;;;4979074;28;20870;-77
2023/04/02 08:46:06;;;;;;;3.25;1.52;;;8.20;99.90;;;;;;4884974;29;20084;-77
2023/04/02 08:48:33;;;;;;;5.63;1.73;;;8.20;99.90;;;;;;4892371;29;20048;-77
2023/04/02 08:51:00;;;;;;;5.07;1.50;;;8.40;99.90;;;;;;4956271;28;20049;-77
2023/04/02 08:53:35;;;;;;;5.18;1.80;;;8.40;99.90;;;;;;4972481;28;20046;-77
2023/04/02 08:56:22;;;;;;;8.00;2.15;;;8.50;99.90;;;;;;4985192;28;20521;-77
2023/04/02 08:58:48;;;;;;;6.15;1.85;;;8.70;99.90;;;;;;4983005;28;20042;-78
2023/04/02 09:01:36;;;;;;;5.40;1.70;;;8.60;99.90;;;;;;4980857;28;20049;-78
2023/04/02 09:04:12;;;;;;;9.57;2.15;;;8.70;99.90;;;;;;4985941;28;20085;-78
2023/04/02 09:06:37;;;;;;;6.15;1.80;;;8.60;99.90;;;;;;4990424;28;20519;-79
2023/04/02 09:09:03;;;;;;;8.38;1.60;;;8.80;99.90;;;;;;4985443;28;20038;-79
2023/04/02 09:11:46;;;;;;;4.10;1.67;;;8.80;99.90;;;;;;4968938;28;20467;-79
2023/04/02 09:14:32;;;;;;;4.80;1.70;;;8.90;99.90;;;;;;4985378;28;20042;-79
2023/04/02 09:17:01;;;;;;;8.20;1.77;;;9.10;99.90;;;;;;4983654;28;20030;-79
2023/04/02 09:19:32;;;;;;;8.02;1.65;;;9.20;99.90;;;;;;4966004;28;20034;-79
2023/04/02 09:22:31;;;;;;;6.95;1.77;;;9.30;99.90;;;;;;4981599;28;20022;-79
2023/04/02 09:25:03;;;;;;;3.72;1.60;;;9.50;99.90;;;;;;4937834;28;20038;-79
2023/04/02 09:27:35;;;;;;;6.75;1.85;;;9.80;99.90;;;;;;4973221;28;20023;-79
2023/04/02 09:30:16;;;;;;;8.70;1.52;;;10.00;99.90;;;;;;4975001;28;20062;-79
2023/04/02 09:32:50;;;;;;;5.80;1.83;;;10.40;99.90;;;;;;4973791;28;20026;-80
2023/04/02 09:35:22;;;;;;;6.03;1.90;;;10.70;99.90;;;;;;4977625;28;20495;-79
2023/04/02 09:38:16;;;;;;;6.20;1.90;;;10.70;98.70;;;;;;4979215;28;20022;-80
2023/04/02 09:41:06;;;;;;;7.00;2.15;;;10.80;98.60;;;;;;4974672;28;20031;-77
2023/04/02 09:43:34;;;;;;;8.30;1.90;;;11.10;99.10;;;;;;4975371;28;20035;-80
2023/04/02 09:46:19;;;;;;;5.93;2.20;;;11.30;96.40;;;;;;4981721;28;20029;-79
2023/04/02 09:49:00;;;;;;;5.30;1.63;;;11.70;94.60;;;;;;4982789;28;20046;-79
2023/04/02 09:51:30;;;;;;;5.60;1.90;;;11.80;92.90;;;;;;4980218;28;20054;-79
2023/04/02 09:54:01;;;;;;;3.63;1.65;;;12.00;91.90;;;;;;4983214;28;20104;-79
2023/04/02 09:56:28;;;;;;;;;;;13.10;91.30;;;;;;4964710;28;20034;-80
2023/04/02 09:59:15;;;;;;;3.28;1.50;;;15.20;70.40;;;;;;4967229;28;19960;-76
2023/04/02 10:01:43;;;;;;;5.78;1.42;;;18.20;48.70;;;;;;4973235;28;20026;-77
2023/04/02 10:04:30;;;;;;;4.93;1.17;;;17.90;45.00;;;;;;4981183;28;20805;-79
2023/04/02 10:06:57;;;;;;;7.28;1.45;;;18.80;47.30;;;;;;4987416;28;20108;-80
2023/04/02 10:09:32;;;;;;;7.57;1.52;;;18.60;43.80;;;;;;4985631;28;20169;-78
2023/04/02 10:12:00;;;;;;;6.95;1.48;;;18.90;44.00;;;;;;4968301;28;20035;-79
2023/04/02 10:14:41;;;;;;;3.30;1.25;;;20.30;43.80;;;;;;4975397;28;20042;-79
2023/04/02 10:17:17;;;;;;;7.95;1.50;;;21.10;41.60;;;;;;4986348;28;20030;-78
2023/04/02 10:19:49;;;;;;;9.80;1.58;;;19.60;39.90;;;;;;4977784;28;20034;-79
2023/04/02 10:22:20;;;;;;;5.80;1.40;;;18.80;42.70;;;;;;4965702;28;20038;-79
2023/04/02 10:24:47;;;;;;;5.50;1.52;;;18.60;43.50;;;;;;4987938;28;20026;-79
2023/04/02 10:27:40;;;;;;;5.72;1.73;;;18.60;45.00;;;;;;4987091;28;20038;-79
2023/04/02 10:30:12;;;;;;;5.65;1.58;;;18.30;44.10;;;;;;4982087;28;20065;-79
2023/04/02 10:32:47;;;;;;;7.68;2.08;;;18.40;44.60;;;;;;4976886;28;20035;-79
2023/04/02 10:35:33;;;;;;;9.27;1.73;;;17.40;44.40;;;;;;4981784;28;20058;-78
2023/04/02 10:38:24;;;;;;;6.82;1.38;;;17.90;48.60;;;;;;4983372;28;20479;-79
2023/04/02 10:41:10;;;;;;;7.63;1.48;;;19.10;44.50;;;;;;4975693;28;20034;-78
2023/04/02 10:43:54;;;;;;;6.43;1.50;;;19.60;39.20;;;;;;4980645;28;20034;-80
2023/04/02 10:46:39;;;;;;;5.53;1.55;;;18.40;43.10;;;;;;4986870;28;20026;-78
2023/04/02 10:49:29;;;;;;;6.03;1.42;;;17.90;43.00;;;;;;4980886;28;20026;-78
2023/04/02 10:52:03;;;;;;;6.80;1.52;;;19.70;43.20;;;;;;4961804;28;20030;-77
2023/04/02 10:54:45;;;;;;;6.80;1.40;;;20.50;38.50;;;;;;4964351;28;20053;-79
2023/04/02 10:57:29;;;;;;;8.60;1.55;;;20.50;37.60;;;;;;4970617;28;20399;-78
2023/04/02 11:00:09;;;;;;;6.85;1.50;;;19.80;39.20;;;;;;4967589;28;20050;-78
2023/04/02 11:03:01;;;;;;;7.25;1.60;;;19.30;40.60;;;;;;4986935;28;20022;-78
2023/04/02 11:05:48;;;;;;;8.65;1.60;;;19.60;38.70;;;;;;4973922;28;20482;-79
2023/04/02 11:08:25;;;;;;;5.45;1.48;;;20.70;38.60;;;;;;4969339;28;20132;-78
2023/04/02 11:11:06;;;;;;;4.43;1.27;;;23.60;32.20;;;;;;4962973;28;20030;-79
2023/04/02 11:13:36;;;;;;;6.43;1.92;;;24.00;31.10;;;;;;4983451;28;20129;-79
2023/04/02 11:16:02;;;;;;;7.15;1.40;;;24.20;32.40;;;;;;4979251;28;20666;-78
2023/04/02 11:18:34;;;;;;;5.88;1.25;;;25.10;30.60;;;;;;4982820;28;20018;-78
2023/04/02 11:21:26;;;;;;;6.50;1.85;;;23.50;29.50;;;;;;4980004;28;20037;-79
2023/04/02 11:24:00;;;;;;;8.45;1.52;;;23.20;34.10;;;;;;4980265;28;20552;-77
2023/04/02 11:26:30;;;;;;;6.25;1.30;;;23.60;33.40;;;;;;4986678;28;20034;-79
2023/04/02 11:29:20;;;;;;;3.67;1.20;;;23.70;30.40;;;;;;4971015;28;20070;-84
2023/04/02 11:31:47;;;;;;;5.13;1.20;;;22.90;29.40;;;;;;4971785;28;20026;-83
2023/04/02 11:34:48;;;;;;;6.72;1.25;;;22.20;33.90;;;;;;4985110;28;20581;-81
2023/04/02 11:37:35;;;;;;;8.13;1.38;;;20.70;34.20;;;;;;4977629;28;20097;-80
2023/04/02 11:40:10;;;;;;;5.60;1.42;;;20.00;36.60;;;;;;4964768;28;20565;-81
2023/04/02 11:42:40;;;;;;;6.35;1.70;;;18.70;37.00;;;;;;4976469;28;20044;-80
2023/04/02 11:45:27;;;;;;;6.55;1.30;;;18.30;42.60;;;;;;4953892;28;20493;-81
2023/04/02 11:47:59;;;;;;;6.63;1.45;;;17.70;43.90;;;;;;4974284;28;20092;-81
2023/04/02 11:50:29;;;;;;;10.57;1.50;;;18.50;42.50;;;;;;4978527;28;20044;-80
2023/04/02 11:53:17;;;;;;;8.35;1.52;;;18.10;42.60;;;;;;4963382;28;20026;-81
2023/04/02 11:55:44;;;;;;;8.95;1.85;;;17.20;41.40;;;;;;4959717;28;20079;-80
2023/04/02 11:58:32;;;;;;;11.80;1.52;;;16.60;43.80;;;;;;4975915;28;20033;-80
2023/04/02 12:01:28;;;;;;;9.23;1.55;;;16.90;48.50;;;;;;4979380;28;20090;-81
2023/04/02 12:04:11;;;;;;;7.30;1.50;;;16.90;46.50;;;;;;4977135;28;20037;-80
2023/04/02 12:06:45;;;;;;;6.72;1.48;;;16.30;47.10;;;;;;4979938;28;20061;-80
2023/04/02 12:09:33;;;;;;;7.00;1.70;;;16.60;47.80;;;;;;4973356;28;20058;-81
2023/04/02 12:12:14;;;;;;;6.75;1.40;;;16.30;45.40;;;;;;4975672;28;20026;-80
2023/04/02 12:14:52;;;;;;;10.05;1.88;;;15.10;46.00;;;;;;4972071;28;20046;-79
2023/04/02 12:17:28;;;;;;;6.03;1.88;;;15.30;46.00;;;;;;4973925;28;20034;-79
2023/04/02 12:19:57;;;;;;;10.15;1.80;;;15.60;50.60;;;;;;4975644;28;20030;-79
2023/04/02 12:22:26;;;;;;;7.32;1.88;;;16.80;46.50;;;;;;4973060;28;20034;-78
2023/04/02 12:24:55;;;;;;;4.93;1.20;;;17.00;44.30;;;;;;4975186;28;20494;-79
2023/04/02 12:27:26;;;;;;;9.45;1.88;;;17.10;43.40;;;;;;4969962;28;20034;-78
2023/04/02 12:29:53;;;;;;;6.05;1.60;;;17.40;43.70;;;;;;4971787;28;20034;-76
2023/04/02 12:32:26;;;;;;;7.22;1.55;;;17.60;42.30;;;;;;4972764;28;20037;-79
2023/04/02 12:34:53;;;;;;;8.98;1.60;;;17.20;47.10;;;;;;4975662;28;20057;-78
2023/04/02 12:37:22;;;;;;;10.32;1.90;;;16.80;45.40;;;;;;4973333;28;20153;-78
2023/04/02 12:40:00;;;;;;;9.55;1.58;;;16.20;46.00;;;;;;4975986;28;20035;-78
2023/04/02 12:42:44;;;;;;;9.90;1.70;;;16.30;47.20;;;;;;4971338;28;20109;-79
2023/04/02 12:45:22;;;;;;;6.88;1.50;;;16.30;49.10;;;;;;4977271;28;20561;-78
2023/04/02 12:47:48;;;;;;;9.40;1.52;;;16.00;49.40;;;;;;4974087;28;20427;-79
2023/04/02 12:50:15;;;;;;;4.50;1.63;;;15.60;49.00;;;;;;4975983;28;20068;-77
2023/04/02 12:52:46;;;;;;;10.10;1.80;;;15.40;50.00;;;;;;4970480;28;20090;-78
2023/04/02 12:55:30;;;;;;;7.82;1.50;;;15.20;48.20;;;;;;4970502;28;20399;-78
2023/04/02 12:57:57;;;;;;;5.65;1.38;;;15.40;46.50;;;;;;4975442;28;20029;-78
2023/04/02 13:00:26;;;;;;;9.20;1.58;;;14.30;50.00;;;;;;4984604;28;20513;-78
2023/04/02 13:03:12;;;;;;;5.45;1.42;;;15.00;52.80;;;;;;4982742;28;20026;-77
2023/04/02 13:05:41;;;;;;;8.02;1.83;;;15.70;50.00;;;;;;4976481;28;20117;-78
2023/04/02 13:08:17;;;;;;;9.52;1.30;;;15.40;44.80;;;;;;4977880;28;20038;-78
2023/04/02 13:10:43;;;;;;;6.50;1.40;;;15.60;49.90;;;;;;4975543;28;20044;-78
2023/04/02 13:13:16;;;;;;;8.10;2.17;;;15.40;45.10;;;;;;4977344;28;20533;-78
2023/04/02 13:15:42;;;;;;;5.25;1.40;;;15.70;47.00;;;;;;4975762;28;20030;-77
2023/04/02 13:18:21;;;;;;;7.93;1.95;;;15.90;45.20;;;;;;4976880;28;20042;-78
2023/04/02 13:21:04;;;;;;;4.80;1.30;;;16.50;53.70;;;;;;4977002;28;20057;-79
2023/04/02 13:23:29;;;;;;;4.57;1.63;;;17.40;46.20;;;;;;4978497;28;20041;-78
2023/04/02 13:26:15;;;;;;;5.50;1.60;;;17.60;44.70;;;;;;4975300;28;20026;-78
2023/04/02 13:28:40;;;;;;;8.10;1.30;;;17.90;43.70;;;;;;4975812;28;20022;-79
2023/04/02 13:31:14;;;;;;;6.45;1.23;;;17.40;42.00;;;;;;4977324;28;20050;-78
2023/04/02 13:33:40;;;;;;;4.45;1.27;;;17.50;43.70;;;;;;4980108;28;20031;-78